sensor_id;sensor_type;location;lat;lon;timestamp;P1;durP1;ratioP1;P2;durP2;ratioP2
63379;SDS011;53160;55.014;73.156;2023-05-18T00:02:07;1.00;;;1.00;;
63379;SDS011;53160;55.014;73.156;2023-05-18T00:04:33;1.00;;;1.00;;
63379;SDS011;53160;55.014;73.156;2023-05-18T00:07:00;1.40;;;1.00;;
63379;SDS011;53160;55.014;73.156;2023-05-18T00:09:29;1.00;;;1.00;;
63379;SDS011;53160;55.014;73.156;2023-05-18T00:12:14;1.00;;;0.00;;
63379;SDS011;53160;55.014;73.156;2023-05-18T00:14:40;0.00;;;0.00;;
63379;SDS011;53160;55.014;73.156;2023-05-18T00:17:06;3.40;;;2.00;;
63379;SDS011;53160;55.014;73.156;2023-05-18T00:19:50;6.00;;;4.40;;
63379;SDS011;53160;55.014;73.156;2023-05-18T00:22:16;4.20;;;3.20;;
63379;SDS011;53160;55.014;73.156;2023-05-18T00:25:01;35.20;;;12.20;;
63379;SDS011;53160;55.014;73.156;2023-05-18T00:27:27;8.20;;;4.40;;
63379;SDS011;53160;55.014;73.156;2023-05-18T00:29:53;6.80;;;4.80;;
63379;SDS011;53160;55.014;73.156;2023-05-18T00:32:21;4.80;;;2.00;;
63379;SDS011;53160;55.014;73.156;2023-05-18T00:34:47;1.40;;;1.20;;
63379;SDS011;53160;55.014;73.156;2023-05-18T00:37:29;4.00;;;2.00;;
63379;SDS011;53160;55.014;73.156;2023-05-18T00:42:59;2.00;;;1.00;;
63379;SDS011;53160;55.014;73.156;2023-05-18T00:45:44;12.40;;;6.00;;
63379;SDS011;53160;55.014;73.156;2023-05-18T00:48:10;2.00;;;1.00;;
63379;SDS011;53160;55.014;73.156;2023-05-18T00:50:36;3.20;;;2.80;;
63379;SDS011;53160;55.014;73.156;2023-05-18T00:53:21;35.80;;;13.00;;
63379;SDS011;53160;55.014;73.156;2023-05-18T00:55:47;4.40;;;2.80;;
63379;SDS011;53160;55.014;73.156;2023-05-18T00:58:16;2.40;;;2.00;;
63379;SDS011;53160;55.014;73.156;2023-05-18T01:00:42;4.80;;;3.00;;
63379;SDS011;53160;55.014;73.156;2023-05-18T01:03:28;19.40;;;9.00;;
63379;SDS011;53160;55.014;73.156;2023-05-18T01:11:51;2.40;;;2.00;;
63379;SDS011;53160;55.014;73.156;2023-05-18T01:16:50;0.40;;;0.00;;
63379;SDS011;53160;55.014;73.156;2023-05-18T01:19:28;18.00;;;14.00;;
63379;SDS011;53160;55.014;73.156;2023-05-18T01:24:44;7.00;;;5.20;;
63379;SDS011;53160;55.014;73.156;2023-05-18T01:27:16;4.40;;;2.00;;
63379;SDS011;53160;55.014;73.156;2023-05-18T01:32:28;26.00;;;20.20;;
63379;SDS011;53160;55.014;73.156;2023-05-18T01:34:56;3.00;;;1.60;;
63379;SDS011;53160;55.014;73.156;2023-05-18T01:37:22;22.80;;;11.60;;
63379;SDS011;53160;55.014;73.156;2023-05-18T01:39:49;12.80;;;6.60;;
63379;SDS011;53160;55.014;73.156;2023-05-18T01:42:18;2.40;;;2.40;;
63379;SDS011;53160;55.014;73.156;2023-05-18T01:45:06;11.80;;;7.40;;
63379;SDS011;53160;55.014;73.156;2023-05-18T01:47:52;3.00;;;2.80;;
63379;SDS011;53160;55.014;73.156;2023-05-18T01:50:24;10.40;;;5.00;;
63379;SDS011;53160;55.014;73.156;2023-05-18T01:53:01;14.80;;;7.40;;
63379;SDS011;53160;55.014;73.156;2023-05-18T01:58:19;8.40;;;6.80;;
63379;SDS011;53160;55.014;73.156;2023-05-18T02:00:45;6.60;;;4.20;;
63379;SDS011;53160;55.014;73.156;2023-05-18T02:03:14;7.20;;;3.20;;
63379;SDS011;53160;55.014;73.156;2023-05-18T02:05:42;4.00;;;3.00;;
63379;SDS011;53160;55.014;73.156;2023-05-18T02:08:09;4.00;;;2.00;;
63379;SDS011;53160;55.014;73.156;2023-05-18T02:10:36;8.80;;;6.60;;
63379;SDS011;53160;55.014;73.156;2023-05-18T02:13:06;8.00;;;4.80;;
63379;SDS011;53160;55.014;73.156;2023-05-18T02:15:50;13.40;;;9.40;;
63379;SDS011;53160;55.014;73.156;2023-05-18T02:18:16;43.00;;;34.20;;
63379;SDS011;53160;55.014;73.156;2023-05-18T02:21:01;3.60;;;3.20;;
63379;SDS011;53160;55.014;73.156;2023-05-18T02:23:27;3.25;;;2.25;;
63379;SDS011;53160;55.014;73.156;2023-05-18T02:28:58;4.80;;;4.40;;
63379;SDS011;53160;55.014;73.156;2023-05-18T02:31:42;5.80;;;1.80;;
63379;SDS011;53160;55.014;73.156;2023-05-18T02:42:12;11.80;;;10.40;;
63379;SDS011;53160;55.014;73.156;2023-05-18T02:44:38;11.60;;;8.80;;
63379;SDS011;53160;55.014;73.156;2023-05-18T02:47:06;14.20;;;5.20;;
63379;SDS011;53160;55.014;73.156;2023-05-18T02:49:33;0.80;;;0.80;;
63379;SDS011;53160;55.014;73.156;2023-05-18T02:51:59;4.80;;;3.00;;
63379;SDS011;53160;55.014;73.156;2023-05-18T02:54:25;4.60;;;3.80;;
63379;SDS011;53160;55.014;73.156;2023-05-18T02:56:51;11.00;;;11.00;;
63379;SDS011;53160;55.014;73.156;2023-05-18T02:59:30;11.60;;;4.40;;
63379;SDS011;53160;55.014;73.156;2023-05-18T03:01:56;2.00;;;1.00;;
63379;SDS011;53160;55.014;73.156;2023-05-18T03:04:22;9.40;;;7.00;;
63379;SDS011;53160;55.014;73.156;2023-05-18T03:06:53;17.40;;;10.80;;
63379;SDS011;53160;55.014;73.156;2023-05-18T03:09:21;2.00;;;1.80;;
63379;SDS011;53160;55.014;73.156;2023-05-18T03:14:33;5.80;;;3.80;;
63379;SDS011;53160;55.014;73.156;2023-05-18T03:19:45;4.80;;;3.60;;
63379;SDS011;53160;55.014;73.156;2023-05-18T03:22:30;14.00;;;12.00;;
63379;SDS011;53160;55.014;73.156;2023-05-18T03:24:58;45.40;;;38.80;;
63379;SDS011;53160;55.014;73.156;2023-05-18T03:27:24;4.60;;;4.00;;
63379;SDS011;53160;55.014;73.156;2023-05-18T03:29:51;7.20;;;3.00;;
63379;SDS011;53160;55.014;73.156;2023-05-18T03:32:17;9.00;;;7.00;;
63379;SDS011;53160;55.014;73.156;2023-05-18T03:34:44;12.80;;;8.20;;
63379;SDS011;53160;55.014;73.156;2023-05-18T03:37:13;2.20;;;2.20;;
63379;SDS011;53160;55.014;73.156;2023-05-18T03:39:47;7.20;;;4.40;;
63379;SDS011;53160;55.014;73.156;2023-05-18T03:42:32;5.60;;;5.00;;
63379;SDS011;53160;55.014;73.156;2023-05-18T03:45:00;3.25;;;3.00;;
63379;SDS011;53160;55.014;73.156;2023-05-18T03:47:26;5.80;;;5.00;;
63379;SDS011;53160;55.014;73.156;2023-05-18T03:49:54;6.40;;;6.40;;
63379;SDS011;53160;55.014;73.156;2023-05-18T03:52:21;4.60;;;2.00;;
63379;SDS011;53160;55.014;73.156;2023-05-18T03:54:48;2.80;;;2.00;;
63379;SDS011;53160;55.014;73.156;2023-05-18T04:00:04;2.00;;;1.20;;
63379;SDS011;53160;55.014;73.156;2023-05-18T04:02:42;2.40;;;2.40;;
63379;SDS011;53160;55.014;73.156;2023-05-18T04:05:09;13.00;;;9.00;;
63379;SDS011;53160;55.014;73.156;2023-05-18T04:07:36;2.00;;;1.00;;
63379;SDS011;53160;55.014;73.156;2023-05-18T04:10:10;2.00;;;2.00;;
63379;SDS011;53160;55.014;73.156;2023-05-18T04:12:55;37.40;;;17.20;;
63379;SDS011;53160;55.014;73.156;2023-05-18T04:15:21;6.00;;;3.40;;
63379;SDS011;53160;55.014;73.156;2023-05-18T04:18:06;5.00;;;3.80;;
63379;SDS011;53160;55.014;73.156;2023-05-18T04:20:32;11.20;;;4.00;;
63379;SDS011;53160;55.014;73.156;2023-05-18T04:22:59;3.00;;;2.00;;
63379;SDS011;53160;55.014;73.156;2023-05-18T04:25:26;4.60;;;4.00;;
63379;SDS011;53160;55.014;73.156;2023-05-18T04:27:53;8.80;;;6.80;;
63379;SDS011;53160;55.014;73.156;2023-05-18T04:30:20;6.80;;;4.80;;
63379;SDS011;53160;55.014;73.156;2023-05-18T04:32:49;1.20;;;1.00;;
63379;SDS011;53160;55.014;73.156;2023-05-18T04:38:01;2.00;;;1.25;;
63379;SDS011;53160;55.014;73.156;2023-05-18T04:40:27;1.00;;;1.00;;
63379;SDS011;53160;55.014;73.156;2023-05-18T04:42:56;3.00;;;2.25;;
63379;SDS011;53160;55.014;73.156;2023-05-18T04:45:26;2.50;;;2.50;;
63379;SDS011;53160;55.014;73.156;2023-05-18T04:47:54;3.00;;;2.50;;
63379;SDS011;53160;55.014;73.156;2023-05-18T04:53:06;16.60;;;15.80;;
63379;SDS011;53160;55.014;73.156;2023-05-18T04:55:34;18.80;;;8.20;;
63379;SDS011;53160;55.014;73.156;2023-05-18T04:58:07;3.50;;;2.50;;
63379;SDS011;53160;55.014;73.156;2023-05-18T05:00:35;3.25;;;2.50;;
63379;SDS011;53160;55.014;73.156;2023-05-18T05:03:02;2.00;;;2.00;;
63379;SDS011;53160;55.014;73.156;2023-05-18T05:05:28;3.00;;;3.00;;
63379;SDS011;53160;55.014;73.156;2023-05-18T05:07:54;8.75;;;7.00;;
63379;SDS011;53160;55.014;73.156;2023-05-18T05:10:20;6.75;;;4.00;;
63379;SDS011;53160;55.014;73.156;2023-05-18T05:12:48;25.00;;;22.00;;
63379;SDS011;53160;55.014;73.156;2023-05-18T05:15:15;16.60;;;9.20;;
63379;SDS011;53160;55.014;73.156;2023-05-18T05:20:27;6.40;;;4.00;;
63379;SDS011;53160;55.014;73.156;2023-05-18T05:22:53;8.00;;;6.40;;
63379;SDS011;53160;55.014;73.156;2023-05-18T05:25:24;7.25;;;4.00;;
63379;SDS011;53160;55.014;73.156;2023-05-18T05:27:51;6.50;;;4.25;;
63379;SDS011;53160;55.014;73.156;2023-05-18T05:30:19;2.75;;;2.75;;
63379;SDS011;53160;55.014;73.156;2023-05-18T05:32:45;2.25;;;2.25;;
63379;SDS011;53160;55.014;73.156;2023-05-18T05:35:11;3.00;;;2.00;;
63379;SDS011;53160;55.014;73.156;2023-05-18T05:37:37;3.50;;;2.50;;
63379;SDS011;53160;55.014;73.156;2023-05-18T05:40:22;8.00;;;6.50;;
63379;SDS011;53160;55.014;73.156;2023-05-18T05:42:51;11.50;;;7.00;;
63379;SDS011;53160;55.014;73.156;2023-05-18T05:45:17;6.50;;;5.00;;
63379;SDS011;53160;55.014;73.156;2023-05-18T05:53:45;6.75;;;6.50;;
63379;SDS011;53160;55.014;73.156;2023-05-18T05:59:16;15.20;;;12.20;;
63379;SDS011;53160;55.014;73.156;2023-05-18T06:02:00;25.00;;;25.00;;
63379;SDS011;53160;55.014;73.156;2023-05-18T06:04:28;16.00;;;15.00;;
63379;SDS011;53160;55.014;73.156;2023-05-18T06:06:55;20.20;;;18.20;;
63379;SDS011;53160;55.014;73.156;2023-05-18T06:09:21;29.40;;;25.80;;
63379;SDS011;53160;55.014;73.156;2023-05-18T06:11:48;37.60;;;30.20;;
63379;SDS011;53160;55.014;73.156;2023-05-18T06:14:33;24.00;;;19.40;;
63379;SDS011;53160;55.014;73.156;2023-05-18T06:17:00;15.40;;;15.00;;
63379;SDS011;53160;55.014;73.156;2023-05-18T06:19:27;19.60;;;14.40;;
63379;SDS011;53160;55.014;73.156;2023-05-18T06:21:53;28.20;;;26.60;;
63379;SDS011;53160;55.014;73.156;2023-05-18T06:24:19;19.20;;;19.20;;
63379;SDS011;53160;55.014;73.156;2023-05-18T06:27:08;28.75;;;26.25;;
63379;SDS011;53160;55.014;73.156;2023-05-18T06:29:54;20.80;;;18.60;;
63379;SDS011;53160;55.014;73.156;2023-05-18T06:32:40;26.00;;;21.40;;
63379;SDS011;53160;55.014;73.156;2023-05-18T06:35:06;16.00;;;14.60;;
63379;SDS011;53160;55.014;73.156;2023-05-18T06:37:33;11.60;;;9.00;;
63379;SDS011;53160;55.014;73.156;2023-05-18T06:40:17;31.40;;;27.20;;
63379;SDS011;53160;55.014;73.156;2023-05-18T06:42:44;18.60;;;18.20;;
63379;SDS011;53160;55.014;73.156;2023-05-18T06:45:35;20.80;;;20.00;;
63379;SDS011;53160;55.014;73.156;2023-05-18T06:48:11;25.80;;;24.00;;
63379;SDS011;53160;55.014;73.156;2023-05-18T06:50:55;24.00;;;20.00;;
63379;SDS011;53160;55.014;73.156;2023-05-18T06:53:21;27.60;;;25.20;;
63379;SDS011;53160;55.014;73.156;2023-05-18T06:58:34;9.20;;;8.80;;
63379;SDS011;53160;55.014;73.156;2023-05-18T07:01:03;6.60;;;5.20;;
63379;SDS011;53160;55.014;73.156;2023-05-18T07:03:30;5.20;;;3.40;;
63379;SDS011;53160;55.014;73.156;2023-05-18T07:05:59;8.00;;;6.75;;
63379;SDS011;53160;55.014;73.156;2023-05-18T07:08:26;10.80;;;8.60;;
63379;SDS011;53160;55.014;73.156;2023-05-18T07:10:52;13.40;;;10.60;;
63379;SDS011;53160;55.014;73.156;2023-05-18T07:13:19;15.60;;;12.60;;
63379;SDS011;53160;55.014;73.156;2023-05-18T07:18:31;8.60;;;7.40;;
63379;SDS011;53160;55.014;73.156;2023-05-18T07:20:58;11.25;;;9.00;;
63379;SDS011;53160;55.014;73.156;2023-05-18T07:23:43;5.00;;;4.25;;
63379;SDS011;53160;55.014;73.156;2023-05-18T07:26:09;9.75;;;6.50;;
63379;SDS011;53160;55.014;73.156;2023-05-18T07:28:37;8.80;;;8.00;;
63379;SDS011;53160;55.014;73.156;2023-05-18T07:31:25;12.75;;;10.75;;
63379;SDS011;53160;55.014;73.156;2023-05-18T07:33:51;7.00;;;7.00;;
63379;SDS011;53160;55.014;73.156;2023-05-18T07:36:17;9.20;;;7.40;;
63379;SDS011;53160;55.014;73.156;2023-05-18T07:38:46;4.00;;;3.00;;
63379;SDS011;53160;55.014;73.156;2023-05-18T07:41:13;9.75;;;7.75;;
63379;SDS011;53160;55.014;73.156;2023-05-18T07:43:42;7.00;;;7.00;;
63379;SDS011;53160;55.014;73.156;2023-05-18T07:46:08;8.75;;;5.75;;
63379;SDS011;53160;55.014;73.156;2023-05-18T07:48:34;4.50;;;4.50;;
63379;SDS011;53160;55.014;73.156;2023-05-18T07:51:19;61.80;;;50.40;;
63379;SDS011;53160;55.014;73.156;2023-05-18T07:53:45;7.40;;;7.40;;
63379;SDS011;53160;55.014;73.156;2023-05-18T07:56:12;10.25;;;6.25;;
63379;SDS011;53160;55.014;73.156;2023-05-18T07:58:39;9.50;;;7.00;;
63379;SDS011;53160;55.014;73.156;2023-05-18T08:03:53;7.25;;;6.75;;
63379;SDS011;53160;55.014;73.156;2023-05-18T08:09:03;6.00;;;3.50;;
63379;SDS011;53160;55.014;73.156;2023-05-18T08:11:48;15.25;;;10.25;;
63379;SDS011;53160;55.014;73.156;2023-05-18T08:14:16;6.00;;;5.00;;
63379;SDS011;53160;55.014;73.156;2023-05-18T08:17:02;5.20;;;5.20;;
63379;SDS011;53160;55.014;73.156;2023-05-18T08:19:28;5.50;;;4.75;;
63379;SDS011;53160;55.014;73.156;2023-05-18T08:21:54;20.60;;;18.60;;
63379;SDS011;53160;55.014;73.156;2023-05-18T08:24:20;5.00;;;4.00;;
63379;SDS011;53160;55.014;73.156;2023-05-18T08:26:46;9.75;;;7.50;;
63379;SDS011;53160;55.014;73.156;2023-05-18T08:29:12;8.00;;;5.67;;
63379;SDS011;53160;55.014;73.156;2023-05-18T08:31:38;20.20;;;17.40;;
63379;SDS011;53160;55.014;73.156;2023-05-18T08:36:50;4.00;;;4.00;;
63379;SDS011;53160;55.014;73.156;2023-05-18T08:39:17;6.25;;;4.50;;
63379;SDS011;53160;55.014;73.156;2023-05-18T08:44:20;8.75;;;6.00;;
63379;SDS011;53160;55.014;73.156;2023-05-18T08:46:48;7.50;;;6.00;;
63379;SDS011;53160;55.014;73.156;2023-05-18T08:49:16;7.00;;;4.50;;
63379;SDS011;53160;55.014;73.156;2023-05-18T08:51:44;6.25;;;5.25;;
63379;SDS011;53160;55.014;73.156;2023-05-18T08:54:30;1.50;;;1.25;;
63379;SDS011;53160;55.014;73.156;2023-05-18T08:57:14;2.50;;;2.00;;
63379;SDS011;53160;55.014;73.156;2023-05-18T08:59:42;4.00;;;3.25;;
63379;SDS011;53160;55.014;73.156;2023-05-18T09:02:27;3.25;;;2.00;;
63379;SDS011;53160;55.014;73.156;2023-05-18T09:04:54;2.00;;;2.00;;
63379;SDS011;53160;55.014;73.156;2023-05-18T09:07:21;3.00;;;2.50;;
63379;SDS011;53160;55.014;73.156;2023-05-18T09:12:32;8.75;;;4.00;;
63379;SDS011;53160;55.014;73.156;2023-05-18T09:14:59;10.00;;;7.00;;
63379;SDS011;53160;55.014;73.156;2023-05-18T09:17:25;3.25;;;3.25;;
63379;SDS011;53160;55.014;73.156;2023-05-18T09:22:36;3.00;;;1.25;;
63379;SDS011;53160;55.014;73.156;2023-05-18T09:28:10;13.00;;;7.40;;
63379;SDS011;53160;55.014;73.156;2023-05-18T09:30:40;2.50;;;2.00;;
63379;SDS011;53160;55.014;73.156;2023-05-18T09:33:15;3.75;;;3.00;;
63379;SDS011;53160;55.014;73.156;2023-05-18T09:35:43;3.50;;;3.25;;
63379;SDS011;53160;55.014;73.156;2023-05-18T09:38:09;5.75;;;4.50;;
63379;SDS011;53160;55.014;73.156;2023-05-18T09:40:35;2.00;;;1.75;;
63379;SDS011;53160;55.014;73.156;2023-05-18T09:43:20;1.50;;;1.50;;
63379;SDS011;53160;55.014;73.156;2023-05-18T09:45:47;4.00;;;4.00;;
63379;SDS011;53160;55.014;73.156;2023-05-18T09:48:13;6.00;;;5.00;;
63379;SDS011;53160;55.014;73.156;2023-05-18T09:50:41;25.00;;;22.60;;
63379;SDS011;53160;55.014;73.156;2023-05-18T09:53:07;7.00;;;4.60;;
63379;SDS011;53160;55.014;73.156;2023-05-18T09:55:39;3.20;;;2.20;;
63379;SDS011;53160;55.014;73.156;2023-05-18T09:58:30;11.40;;;7.00;;
63379;SDS011;53160;55.014;73.156;2023-05-18T10:01:15;3.60;;;2.60;;
63379;SDS011;53160;55.014;73.156;2023-05-18T10:03:44;5.75;;;3.75;;
63379;SDS011;53160;55.014;73.156;2023-05-18T10:06:13;4.25;;;2.25;;
63379;SDS011;53160;55.014;73.156;2023-05-18T10:08:57;3.25;;;2.25;;
63379;SDS011;53160;55.014;73.156;2023-05-18T10:11:30;5.60;;;4.00;;
63379;SDS011;53160;55.014;73.156;2023-05-18T10:13:56;6.00;;;4.20;;
63379;SDS011;53160;55.014;73.156;2023-05-18T10:16:23;3.50;;;2.50;;
63379;SDS011;53160;55.014;73.156;2023-05-18T10:18:50;6.20;;;4.60;;
63379;SDS011;53160;55.014;73.156;2023-05-18T10:21:18;8.00;;;5.80;;
63379;SDS011;53160;55.014;73.156;2023-05-18T10:29:16;7.50;;;3.75;;
63379;SDS011;53160;55.014;73.156;2023-05-18T10:34:31;5.25;;;3.25;;
63379;SDS011;53160;55.014;73.156;2023-05-18T10:36:58;16.00;;;7.75;;
63379;SDS011;53160;55.014;73.156;2023-05-18T10:39:25;2.00;;;1.75;;
63379;SDS011;53160;55.014;73.156;2023-05-18T10:41:56;3.75;;;3.00;;
63379;SDS011;53160;55.014;73.156;2023-05-18T10:44:22;2.50;;;2.50;;
63379;SDS011;53160;55.014;73.156;2023-05-18T10:46:50;2.00;;;1.50;;
63379;SDS011;53160;55.014;73.156;2023-05-18T10:52:00;5.00;;;3.75;;
63379;SDS011;53160;55.014;73.156;2023-05-18T10:57:13;6.00;;;5.25;;
63379;SDS011;53160;55.014;73.156;2023-05-18T10:59:58;6.50;;;3.50;;
63379;SDS011;53160;55.014;73.156;2023-05-18T11:02:25;12.75;;;7.00;;
63379;SDS011;53160;55.014;73.156;2023-05-18T11:05:29;11.00;;;5.00;;
63379;SDS011;53160;55.014;73.156;2023-05-18T11:11:00;16.00;;;10.60;;
63379;SDS011;53160;55.014;73.156;2023-05-18T11:13:49;9.00;;;6.25;;
63379;SDS011;53160;55.014;73.156;2023-05-18T11:19:07;8.50;;;4.00;;
63379;SDS011;53160;55.014;73.156;2023-05-18T11:29:44;6.50;;;3.00;;
63379;SDS011;53160;55.014;73.156;2023-05-18T11:32:21;8.75;;;6.25;;
63379;SDS011;53160;55.014;73.156;2023-05-18T11:34:51;6.50;;;5.00;;
63379;SDS011;53160;55.014;73.156;2023-05-18T11:40:08;29.00;;;13.00;;
63379;SDS011;53160;55.014;73.156;2023-05-18T11:42:35;6.00;;;3.00;;
63379;SDS011;53160;55.014;73.156;2023-05-18T11:45:06;5.25;;;4.25;;
63379;SDS011;53160;55.014;73.156;2023-05-18T11:47:55;4.50;;;3.00;;
63379;SDS011;53160;55.014;73.156;2023-05-18T11:50:22;3.25;;;2.50;;
63379;SDS011;53160;55.014;73.156;2023-05-18T11:53:06;3.25;;;2.25;;
63379;SDS011;53160;55.014;73.156;2023-05-18T11:55:39;3.25;;;2.75;;
63379;SDS011;53160;55.014;73.156;2023-05-18T11:58:06;12.50;;;7.25;;
63379;SDS011;53160;55.014;73.156;2023-05-18T12:00:32;7.75;;;4.75;;
63379;SDS011;53160;55.014;73.156;2023-05-18T12:02:58;3.50;;;1.50;;
63379;SDS011;53160;55.014;73.156;2023-05-18T12:05:35;2.00;;;2.00;;
63379;SDS011;53160;55.014;73.156;2023-05-18T12:08:20;25.40;;;22.20;;
63379;SDS011;53160;55.014;73.156;2023-05-18T12:11:13;6.50;;;6.25;;
63379;SDS011;53160;55.014;73.156;2023-05-18T12:19:10;3.00;;;3.00;;
63379;SDS011;53160;55.014;73.156;2023-05-18T12:21:36;11.25;;;7.00;;
63379;SDS011;53160;55.014;73.156;2023-05-18T12:24:03;7.25;;;5.00;;
63379;SDS011;53160;55.014;73.156;2023-05-18T12:26:29;2.25;;;1.25;;
63379;SDS011;53160;55.014;73.156;2023-05-18T12:32:04;11.25;;;4.25;;
63379;SDS011;53160;55.014;73.156;2023-05-18T12:34:30;3.25;;;2.00;;
63379;SDS011;53160;55.014;73.156;2023-05-18T12:36:56;3.00;;;2.75;;
63379;SDS011;53160;55.014;73.156;2023-05-18T12:39:23;3.50;;;2.25;;
63379;SDS011;53160;55.014;73.156;2023-05-18T12:41:50;3.25;;;2.00;;
63379;SDS011;53160;55.014;73.156;2023-05-18T12:44:16;8.75;;;5.25;;
63379;SDS011;53160;55.014;73.156;2023-05-18T12:46:42;5.00;;;3.25;;
63379;SDS011;53160;55.014;73.156;2023-05-18T12:49:08;1.50;;;1.25;;
63379;SDS011;53160;55.014;73.156;2023-05-18T12:51:35;8.00;;;4.25;;
63379;SDS011;53160;55.014;73.156;2023-05-18T12:54:02;4.50;;;3.25;;
63379;SDS011;53160;55.014;73.156;2023-05-18T12:56:53;4.00;;;3.50;;
63379;SDS011;53160;55.014;73.156;2023-05-18T12:59:30;4.00;;;3.25;;
63379;SDS011;53160;55.014;73.156;2023-05-18T13:02:26;2.25;;;2.00;;
63379;SDS011;53160;55.014;73.156;2023-05-18T13:05:11;0.75;;;0.50;;
63379;SDS011;53160;55.014;73.156;2023-05-18T13:07:42;2.50;;;1.25;;
63379;SDS011;53160;55.014;73.156;2023-05-18T13:10:08;7.00;;;4.75;;
63379;SDS011;53160;55.014;73.156;2023-05-18T13:12:39;5.50;;;3.75;;
63379;SDS011;53160;55.014;73.156;2023-05-18T13:15:13;1.25;;;1.25;;
63379;SDS011;53160;55.014;73.156;2023-05-18T13:17:47;4.75;;;3.00;;
63379;SDS011;53160;55.014;73.156;2023-05-18T13:20:33;1.00;;;1.00;;
63379;SDS011;53160;55.014;73.156;2023-05-18T13:23:09;2.00;;;2.00;;
63379;SDS011;53160;55.014;73.156;2023-05-18T13:25:55;2.75;;;2.75;;
63379;SDS011;53160;55.014;73.156;2023-05-18T13:28:23;3.75;;;2.00;;
63379;SDS011;53160;55.014;73.156;2023-05-18T13:30:51;2.50;;;2.50;;
63379;SDS011;53160;55.014;73.156;2023-05-18T13:33:19;1.75;;;1.75;;
63379;SDS011;53160;55.014;73.156;2023-05-18T13:35:46;2.00;;;1.50;;
63379;SDS011;53160;55.014;73.156;2023-05-18T13:38:14;3.00;;;3.00;;
63379;SDS011;53160;55.014;73.156;2023-05-18T13:40:40;7.50;;;4.50;;
63379;SDS011;53160;55.014;73.156;2023-05-18T13:46:09;13.00;;;9.00;;
63379;SDS011;53160;55.014;73.156;2023-05-18T13:48:36;7.00;;;5.80;;
63379;SDS011;53160;55.014;73.156;2023-05-18T13:51:20;3.00;;;3.00;;
63379;SDS011;53160;55.014;73.156;2023-05-18T13:53:46;4.00;;;3.00;;
63379;SDS011;53160;55.014;73.156;2023-05-18T13:56:12;2.50;;;2.00;;
63379;SDS011;53160;55.014;73.156;2023-05-18T13:58:38;2.25;;;2.00;;
63379;SDS011;53160;55.014;73.156;2023-05-18T14:09:37;3.25;;;3.00;;
63379;SDS011;53160;55.014;73.156;2023-05-18T14:12:03;6.75;;;5.25;;
63379;SDS011;53160;55.014;73.156;2023-05-18T14:14:30;6.20;;;5.40;;
63379;SDS011;53160;55.014;73.156;2023-05-18T14:20:00;16.00;;;8.00;;
63379;SDS011;53160;55.014;73.156;2023-05-18T14:22:26;5.00;;;4.50;;
63379;SDS011;53160;55.014;73.156;2023-05-18T14:24:55;5.00;;;4.60;;
63379;SDS011;53160;55.014;73.156;2023-05-18T14:30:24;4.00;;;3.60;;
63379;SDS011;53160;55.014;73.156;2023-05-18T14:33:09;5.00;;;4.25;;
63379;SDS011;53160;55.014;73.156;2023-05-18T14:35:35;5.00;;;4.00;;
63379;SDS011;53160;55.014;73.156;2023-05-18T14:38:01;7.00;;;5.00;;
63379;SDS011;53160;55.014;73.156;2023-05-18T14:40:27;5.60;;;4.00;;
63379;SDS011;53160;55.014;73.156;2023-05-18T14:42:54;4.75;;;4.00;;
63379;SDS011;53160;55.014;73.156;2023-05-18T14:48:05;9.00;;;7.25;;
63379;SDS011;53160;55.014;73.156;2023-05-18T14:50:50;11.40;;;11.20;;
63379;SDS011;53160;55.014;73.156;2023-05-18T14:53:16;8.00;;;6.40;;
63379;SDS011;53160;55.014;73.156;2023-05-18T14:55:42;10.60;;;9.00;;
63379;SDS011;53160;55.014;73.156;2023-05-18T14:58:45;8.60;;;6.00;;
63379;SDS011;53160;55.014;73.156;2023-05-18T15:01:30;14.00;;;9.60;;
63379;SDS011;53160;55.014;73.156;2023-05-18T15:04:14;11.60;;;9.00;;
63379;SDS011;53160;55.014;73.156;2023-05-18T15:06:41;16.60;;;12.40;;
63379;SDS011;53160;55.014;73.156;2023-05-18T15:09:07;17.40;;;15.40;;
63379;SDS011;53160;55.014;73.156;2023-05-18T15:11:34;21.00;;;16.80;;
63379;SDS011;53160;55.014;73.156;2023-05-18T15:14:02;31.40;;;23.40;;
63379;SDS011;53160;55.014;73.156;2023-05-18T15:16:28;56.20;;;44.80;;
63379;SDS011;53160;55.014;73.156;2023-05-18T15:18:54;56.00;;;46.20;;
63379;SDS011;53160;55.014;73.156;2023-05-18T15:21:21;76.00;;;57.40;;
63379;SDS011;53160;55.014;73.156;2023-05-18T15:23:47;74.25;;;54.00;;
63379;SDS011;53160;55.014;73.156;2023-05-18T15:26:13;107.40;;;92.00;;
63379;SDS011;53160;55.014;73.156;2023-05-18T15:28:39;126.25;;;107.00;;
63379;SDS011;53160;55.014;73.156;2023-05-18T15:31:05;119.50;;;103.25;;
63379;SDS011;53160;55.014;73.156;2023-05-18T15:33:33;120.50;;;103.00;;
63379;SDS011;53160;55.014;73.156;2023-05-18T15:38:46;88.40;;;70.60;;
63379;SDS011;53160;55.014;73.156;2023-05-18T15:41:12;89.00;;;69.20;;
63379;SDS011;53160;55.014;73.156;2023-05-18T15:43:38;85.20;;;62.60;;
63379;SDS011;53160;55.014;73.156;2023-05-18T15:46:07;80.40;;;60.60;;
63379;SDS011;53160;55.014;73.156;2023-05-18T15:48:33;88.60;;;72.20;;
63379;SDS011;53160;55.014;73.156;2023-05-18T15:50:59;84.20;;;65.20;;
63379;SDS011;53160;55.014;73.156;2023-05-18T15:53:25;65.80;;;50.80;;
63379;SDS011;53160;55.014;73.156;2023-05-18T15:55:51;33.40;;;31.20;;
63379;SDS011;53160;55.014;73.156;2023-05-18T15:58:19;26.40;;;23.00;;
63379;SDS011;53160;55.014;73.156;2023-05-18T16:00:47;17.60;;;15.80;;
63379;SDS011;53160;55.014;73.156;2023-05-18T16:03:13;18.20;;;15.20;;
63379;SDS011;53160;55.014;73.156;2023-05-18T16:05:39;19.80;;;16.60;;
63379;SDS011;53160;55.014;73.156;2023-05-18T16:08:05;18.00;;;16.80;;
63379;SDS011;53160;55.014;73.156;2023-05-18T16:10:31;19.60;;;16.00;;
63379;SDS011;53160;55.014;73.156;2023-05-18T16:13:16;27.60;;;25.20;;
63379;SDS011;53160;55.014;73.156;2023-05-18T16:15:42;23.60;;;21.00;;
63379;SDS011;53160;55.014;73.156;2023-05-18T16:18:08;23.80;;;20.80;;
63379;SDS011;53160;55.014;73.156;2023-05-18T16:20:34;23.60;;;21.60;;
63379;SDS011;53160;55.014;73.156;2023-05-18T16:23:00;22.60;;;22.60;;
63379;SDS011;53160;55.014;73.156;2023-05-18T16:25:26;40.20;;;33.60;;
63379;SDS011;53160;55.014;73.156;2023-05-18T16:27:53;41.60;;;36.00;;
63379;SDS011;53160;55.014;73.156;2023-05-18T16:30:19;31.00;;;27.00;;
63379;SDS011;53160;55.014;73.156;2023-05-18T16:32:45;30.80;;;25.40;;
63379;SDS011;53160;55.014;73.156;2023-05-18T16:35:12;23.80;;;20.20;;
63379;SDS011;53160;55.014;73.156;2023-05-18T16:37:38;19.60;;;18.00;;
63379;SDS011;53160;55.014;73.156;2023-05-18T16:40:04;14.80;;;13.80;;
63379;SDS011;53160;55.014;73.156;2023-05-18T16:42:30;13.20;;;12.20;;
63379;SDS011;53160;55.014;73.156;2023-05-18T16:44:57;17.80;;;14.80;;
63379;SDS011;53160;55.014;73.156;2023-05-18T16:47:33;22.20;;;17.20;;
63379;SDS011;53160;55.014;73.156;2023-05-18T16:49:59;22.00;;;17.60;;
63379;SDS011;53160;55.014;73.156;2023-05-18T16:52:26;29.80;;;27.00;;
63379;SDS011;53160;55.014;73.156;2023-05-18T16:54:52;31.20;;;26.00;;
63379;SDS011;53160;55.014;73.156;2023-05-18T16:57:18;24.00;;;20.80;;
63379;SDS011;53160;55.014;73.156;2023-05-18T16:59:44;27.40;;;21.20;;
63379;SDS011;53160;55.014;73.156;2023-05-18T17:02:10;35.40;;;28.20;;
63379;SDS011;53160;55.014;73.156;2023-05-18T17:04:40;21.00;;;17.20;;
63379;SDS011;53160;55.014;73.156;2023-05-18T17:07:07;23.00;;;20.00;;
63379;SDS011;53160;55.014;73.156;2023-05-18T17:09:35;15.80;;;14.80;;